createdAt,value
2023-01-29T00:01:06.487Z,6.97
2023-01-29T00:06:10.360Z,7.23
2023-01-29T00:11:14.111Z,7.13
2023-01-29T00:16:19.153Z,7.13
2023-01-29T00:21:23.538Z,6.87
2023-01-29T00:26:27.425Z,7.83
2023-01-29T00:31:32.484Z,7.30
2023-01-29T00:36:36.005Z,7.30
2023-01-29T00:41:56.613Z,8.43
2023-01-29T00:47:01.437Z,7.97
2023-01-29T00:52:22.391Z,7.80
2023-01-29T00:57:27.289Z,7.43
2023-01-29T01:02:49.679Z,7.37
2023-01-29T01:07:53.723Z,7.13
2023-01-29T01:12:59.264Z,7.67
2023-01-29T01:18:04.529Z,7.10
2023-01-29T01:23:07.948Z,7.17
2023-01-29T01:28:11.901Z,6.60
2023-01-29T01:33:16.844Z,7.07
2023-01-29T01:38:21.775Z,7.53
2023-01-29T01:43:25.174Z,5.93
2023-01-29T01:48:30.008Z,6.47
2023-01-29T01:53:37.725Z,6.47
2023-01-29T01:58:43.862Z,6.00
2023-01-29T02:04:08.508Z,6.80
2023-01-29T02:09:31.909Z,7.07
2023-01-29T02:14:39.037Z,7.33
2023-01-29T02:19:48.550Z,6.93
2023-01-29T02:25:10.168Z,7.70
2023-01-29T02:30:18.208Z,7.67
2023-01-29T02:35:27.201Z,6.17
2023-01-29T02:40:32.723Z,6.80
2023-01-29T02:45:41.949Z,7.07
2023-01-29T02:50:46.551Z,6.77
2023-01-29T02:55:53.000Z,6.40
2023-01-29T03:01:00.570Z,6.53
2023-01-29T03:06:07.469Z,6.47
2023-01-29T03:11:14.285Z,6.30
2023-01-29T03:16:23.139Z,6.07
2023-01-29T03:21:47.286Z,5.73
2023-01-29T03:27:08.127Z,6.60
2023-01-29T03:32:17.747Z,6.63
2023-01-29T03:37:23.578Z,6.47
2023-01-29T03:42:30.269Z,6.07
2023-01-29T03:47:41.590Z,6.60
2023-01-29T03:52:47.494Z,7.20
2023-01-29T03:57:55.576Z,5.87
2023-01-29T04:03:08.044Z,6.33
2023-01-29T04:08:15.902Z,6.90
2023-01-29T04:13:21.160Z,6.40
2023-01-29T04:18:27.265Z,6.07
2023-01-29T04:23:45.240Z,5.57
2023-01-29T04:28:55.324Z,6.20
2023-01-29T04:34:04.788Z,5.97
2023-01-29T04:39:12.483Z,4.70
2023-01-29T04:44:18.423Z,5.17
2023-01-29T04:49:30.576Z,5.37
2023-01-29T04:54:38.621Z,5.60
2023-01-29T04:59:43.831Z,5.17
2023-01-29T05:04:49.067Z,5.23
2023-01-29T05:09:52.852Z,5.00
2023-01-29T05:14:57.849Z,5.53
2023-01-29T05:20:02.723Z,5.13
2023-01-29T05:25:11.968Z,4.93
2023-01-29T05:30:15.738Z,4.90
2023-01-29T05:35:20.796Z,5.73
2023-01-29T05:40:24.529Z,5.70
2023-01-29T05:45:27.765Z,5.57
2023-01-29T05:50:33.284Z,5.80
2023-01-29T05:55:36.577Z,6.93
2023-01-29T06:00:39.961Z,4.83
2023-01-29T06:05:45.260Z,6.23
2023-01-29T06:10:48.701Z,5.47
2023-01-29T06:15:52.219Z,5.97
2023-01-29T06:20:57.142Z,5.37
2023-01-29T06:26:01.275Z,5.30
2023-01-29T06:31:21.937Z,6.33
2023-01-29T06:36:29.907Z,5.40
2023-01-29T06:41:33.312Z,5.57
2023-01-29T06:46:37.194Z,5.90
2023-01-29T06:51:42.708Z,6.50
2023-01-29T06:56:46.182Z,6.40
2023-01-29T07:01:49.756Z,6.00
2023-01-29T07:06:54.816Z,6.93
2023-01-29T07:11:59.124Z,5.97
2023-01-29T07:17:02.558Z,6.80
2023-01-29T07:22:07.461Z,7.37
2023-01-29T07:27:11.202Z,6.67
2023-01-29T07:32:14.516Z,6.87
2023-01-29T07:37:19.842Z,5.83
2023-01-29T07:42:24.872Z,6.57
2023-01-29T07:47:28.204Z,7.60
2023-01-29T07:52:34.297Z,8.03
2023-01-29T07:57:37.679Z,7.07
2023-01-29T08:02:41.277Z,7.30
2023-01-29T08:07:51.474Z,8.17
2023-01-29T08:13:01.285Z,7.83
2023-01-29T08:18:04.830Z,6.00
2023-01-29T08:23:11.713Z,7.60
2023-01-29T08:28:15.213Z,6.90
2023-01-29T08:33:23.775Z,7.53
2023-01-29T08:38:31.449Z,8.23
2023-01-29T08:43:37.250Z,7.00
2023-01-29T08:48:40.939Z,8.03
2023-01-29T08:53:45.845Z,7.83
2023-01-29T08:58:49.869Z,6.37
2023-01-29T09:03:53.250Z,8.57
2023-01-29T09:08:57.924Z,7.20
2023-01-29T09:14:01.753Z,7.50
2023-01-29T09:19:05.256Z,7.67
2023-01-29T09:24:11.069Z,8.03
2023-01-29T09:29:14.662Z,7.17
2023-01-29T09:34:18.732Z,8.03
2023-01-29T09:39:23.568Z,8.53
2023-01-29T09:44:30.546Z,7.27
2023-01-29T09:49:35.723Z,6.87
2023-01-29T09:54:48.742Z,7.80
2023-01-29T09:59:54.710Z,6.67
2023-01-29T10:05:10.413Z,7.07
2023-01-29T10:10:22.870Z,7.33
2023-01-29T10:15:32.443Z,9.40
2023-01-29T10:20:42.522Z,7.07
2023-01-29T10:25:48.617Z,15.13
2023-01-29T10:30:53.161Z,6.63
2023-01-29T10:35:58.419Z,7.00
2023-01-29T10:41:08.739Z,6.40
2023-01-29T10:46:19.781Z,6.93
2023-01-29T10:51:28.689Z,5.77
2023-01-29T10:56:52.799Z,6.57
2023-01-29T11:01:59.177Z,7.73
2023-01-29T11:07:02.515Z,6.73
2023-01-29T11:12:12.185Z,6.27
2023-01-29T11:17:19.171Z,6.60
2023-01-29T11:22:23.773Z,6.43
2023-01-29T11:27:30.292Z,6.83
2023-01-29T11:32:35.483Z,6.10
2023-01-29T11:37:39.899Z,7.07
2023-01-29T11:42:44.710Z,7.07
2023-01-29T11:47:50.252Z,7.90
2023-01-29T11:52:54.959Z,6.27
2023-01-29T11:58:02.526Z,7.50
2023-01-29T12:03:08.938Z,6.27
2023-01-29T12:08:16.885Z,6.27
2023-01-29T12:13:27.225Z,8.10
2023-01-29T12:18:31.867Z,7.43
2023-01-29T12:23:41.726Z,7.43
2023-01-29T12:28:51.017Z,8.47
2023-01-29T12:33:57.082Z,7.73
2023-01-29T12:39:00.628Z,7.73
2023-01-29T12:44:07.671Z,8.00
2023-01-29T12:49:13.407Z,7.43
2023-01-29T12:54:20.637Z,7.30
2023-01-29T12:59:29.287Z,6.90
2023-01-29T13:04:37.864Z,6.83
2023-01-29T13:09:43.228Z,6.97
2023-01-29T13:14:51.485Z,6.23
2023-01-29T13:19:56.542Z,6.37
2023-01-29T13:25:05.027Z,6.63
2023-01-29T13:30:25.173Z,7.37
2023-01-29T13:35:28.517Z,6.13
2023-01-29T13:40:34.533Z,7.10
2023-01-29T13:45:44.352Z,7.40
2023-01-29T13:50:47.854Z,10.10
2023-01-29T13:55:51.356Z,6.23
2023-01-29T14:00:56.295Z,7.60
2023-01-29T14:06:00.745Z,6.47
2023-01-29T14:11:22.889Z,6.50
2023-01-29T14:16:35.997Z,6.97
2023-01-29T14:21:39.714Z,5.67
2023-01-29T14:26:45.982Z,6.47
2023-01-29T14:31:53.617Z,6.67
2023-01-29T14:36:58.370Z,6.10
2023-01-29T14:42:03.803Z,6.37
2023-01-29T14:47:18.706Z,5.90
2023-01-29T14:52:24.105Z,6.60
2023-01-29T14:57:28.156Z,10.80
2023-01-29T15:02:37.383Z,6.00
2023-01-29T15:07:43.017Z,6.97
2023-01-29T15:12:47.706Z,5.40
2023-01-29T15:17:55.965Z,5.80
2023-01-29T15:22:59.392Z,5.50
2023-01-29T15:28:08.462Z,5.83
2023-01-29T15:33:15.816Z,5.83
2023-01-29T15:38:20.164Z,6.43
2023-01-29T15:43:24.635Z,5.80
2023-01-29T15:48:33.022Z,5.83
2023-01-29T15:53:37.557Z,6.10
2023-01-29T15:58:41.230Z,7.73
2023-01-29T16:03:46.603Z,7.17
2023-01-29T16:08:50.932Z,7.20
2023-01-29T16:13:54.662Z,6.37
2023-01-29T16:19:00.901Z,7.73
2023-01-29T16:24:09.370Z,7.27
2023-01-29T16:29:14.367Z,6.30
2023-01-29T16:34:23.877Z,6.27
2023-01-29T16:39:29.393Z,6.67
2023-01-29T16:44:33.501Z,6.57
2023-01-29T16:49:57.754Z,6.23
2023-01-29T16:55:02.482Z,6.73
2023-01-29T17:00:09.393Z,6.30
2023-01-29T17:05:20.903Z,6.50
2023-01-29T17:10:24.501Z,6.67
2023-01-29T17:15:32.938Z,8.20
2023-01-29T17:20:37.729Z,6.73
2023-01-29T17:25:41.209Z,7.97
2023-01-29T17:30:50.689Z,7.10
2023-01-29T17:35:58.235Z,7.43
2023-01-29T17:41:03.821Z,6.70
2023-01-29T17:46:07.850Z,7.10
2023-01-29T17:51:14.575Z,12.20
2023-01-29T17:56:18.548Z,8.17
2023-01-29T18:01:21.884Z,8.40
2023-01-29T18:06:28.085Z,8.93
2023-01-29T18:11:31.627Z,8.43
2023-01-29T18:16:37.373Z,10.30
2023-01-29T18:21:42.031Z,10.93
2023-01-29T18:26:45.549Z,8.17
2023-01-29T18:31:49.336Z,7.83
2023-01-29T18:36:53.908Z,7.30
2023-01-29T18:41:58.347Z,8.63
2023-01-29T18:47:01.581Z,7.40
2023-01-29T18:52:06.594Z,7.77
2023-01-29T18:57:13.646Z,8.10
2023-01-29T19:02:33.621Z,8.67
2023-01-29T19:07:38.625Z,10.17
2023-01-29T19:12:42.484Z,8.80
2023-01-29T19:17:45.741Z,7.00
2023-01-29T19:22:50.333Z,7.40
2023-01-29T19:27:56.392Z,18.33
2023-01-29T19:32:59.772Z,15.00
2023-01-29T19:38:05.509Z,9.50
2023-01-29T19:43:08.992Z,11.77
2023-01-29T19:48:13.540Z,11.80
2023-01-29T19:53:18.265Z,9.77
2023-01-29T19:58:21.473Z,12.00
2023-01-29T20:03:25.002Z,10.27
2023-01-29T20:08:29.957Z,11.27
2023-01-29T20:13:33.552Z,8.83
2023-01-29T20:18:36.943Z,11.50
2023-01-29T20:23:41.771Z,10.33
2023-01-29T20:28:46.906Z,11.00
2023-01-29T20:33:50.489Z,7.57
2023-01-29T20:38:55.039Z,10.97
2023-01-29T20:43:58.428Z,12.50
2023-01-29T20:49:01.795Z,13.50
2023-01-29T20:54:06.607Z,11.37
2023-01-29T20:59:10.323Z,10.43
2023-01-29T21:04:13.590Z,15.20
2023-01-29T21:09:20.509Z,13.63
2023-01-29T21:14:23.965Z,13.10
2023-01-29T21:19:27.811Z,10.73
2023-01-29T21:24:32.558Z,10.37
2023-01-29T21:29:37.824Z,11.00
2023-01-29T21:34:43.004Z,9.57
2023-01-29T21:39:48.260Z,9.47
2023-01-29T21:44:52.007Z,8.60
2023-01-29T21:49:55.632Z,9.13
2023-01-29T21:55:00.656Z,6.87
2023-01-29T22:00:04.265Z,7.67
2023-01-29T22:05:18.778Z,9.33
2023-01-29T22:10:24.256Z,8.77
2023-01-29T22:15:28.181Z,8.00
2023-01-29T22:20:33.952Z,8.50
2023-01-29T22:25:38.891Z,8.70
2023-01-29T22:30:42.433Z,8.50
2023-01-29T22:35:46.516Z,7.70
2023-01-29T22:40:51.890Z,7.23
2023-01-29T22:45:56.431Z,8.97
2023-01-29T22:51:10.550Z,8.27
2023-01-29T22:56:15.473Z,9.37
2023-01-29T23:01:19.529Z,9.60
2023-01-29T23:06:22.921Z,7.90
2023-01-29T23:11:27.551Z,9.10
2023-01-29T23:16:30.976Z,10.37
2023-01-29T23:21:34.657Z,9.23
2023-01-29T23:27:08.523Z,8.80
2023-01-29T23:32:12.299Z,8.10
2023-01-29T23:37:15.668Z,7.77
2023-01-29T23:42:20.462Z,9.63
2023-01-29T23:47:23.808Z,10.23
2023-01-29T23:52:27.105Z,10.67
2023-01-29T23:57:31.972Z,8.77
